sensor_id;sensor_type;location;lat;lon;timestamp;temperature;humidity
9658;DHT22;4867;48.112;11.622;2023-06-10T00:02:23;16.90;99.90
9658;DHT22;4867;48.112;11.622;2023-06-10T00:04:51;17.00;99.90
9658;DHT22;4867;48.112;11.622;2023-06-10T00:07:19;16.80;99.90
9658;DHT22;4867;48.112;11.622;2023-06-10T00:09:47;16.80;99.90
9658;DHT22;4867;48.112;11.622;2023-06-10T00:12:14;16.80;99.90
9658;DHT22;4867;48.112;11.622;2023-06-10T00:14:44;16.60;99.90
9658;DHT22;4867;48.112;11.622;2023-06-10T00:17:11;16.50;99.90
9658;DHT22;4867;48.112;11.622;2023-06-10T00:19:39;16.60;99.90
9658;DHT22;4867;48.112;11.622;2023-06-10T00:22:08;16.60;99.90
9658;DHT22;4867;48.112;11.622;2023-06-10T00:24:36;16.60;99.90
9658;DHT22;4867;48.112;11.622;2023-06-10T00:27:04;16.70;99.90
9658;DHT22;4867;48.112;11.622;2023-06-10T00:29:34;16.50;99.90
9658;DHT22;4867;48.112;11.622;2023-06-10T00:32:02;16.50;99.90
9658;DHT22;4867;48.112;11.622;2023-06-10T00:34:30;16.40;99.90
9658;DHT22;4867;48.112;11.622;2023-06-10T00:36:59;16.40;99.90
9658;DHT22;4867;48.112;11.622;2023-06-10T00:39:27;16.40;99.90
9658;DHT22;4867;48.112;11.622;2023-06-10T00:41:54;16.40;99.90
9658;DHT22;4867;48.112;11.622;2023-06-10T00:44:22;16.50;99.90
9658;DHT22;4867;48.112;11.622;2023-06-10T00:46:49;16.30;99.90
9658;DHT22;4867;48.112;11.622;2023-06-10T00:49:18;16.30;99.90
9658;DHT22;4867;48.112;11.622;2023-06-10T00:51:48;16.30;99.90
9658;DHT22;4867;48.112;11.622;2023-06-10T00:54:16;16.30;99.90
9658;DHT22;4867;48.112;11.622;2023-06-10T00:56:47;16.30;99.90
9658;DHT22;4867;48.112;11.622;2023-06-10T00:59:15;16.30;99.90
9658;DHT22;4867;48.112;11.622;2023-06-10T01:01:46;16.30;99.90
9658;DHT22;4867;48.112;11.622;2023-06-10T01:04:16;16.30;99.90
9658;DHT22;4867;48.112;11.622;2023-06-10T01:09:41;16.20;99.90
9658;DHT22;4867;48.112;11.622;2023-06-10T01:12:21;16.20;99.90
9658;DHT22;4867;48.112;11.622;2023-06-10T01:14:51;16.00;99.90
9658;DHT22;4867;48.112;11.622;2023-06-10T01:17:19;15.90;99.90
9658;DHT22;4867;48.112;11.622;2023-06-10T01:19:54;15.80;99.90
9658;DHT22;4867;48.112;11.622;2023-06-10T01:22:26;15.80;99.90
9658;DHT22;4867;48.112;11.622;2023-06-10T01:25:04;15.80;99.90
9658;DHT22;4867;48.112;11.622;2023-06-10T01:27:36;15.80;99.90
9658;DHT22;4867;48.112;11.622;2023-06-10T01:30:14;16.10;99.90
9658;DHT22;4867;48.112;11.622;2023-06-10T01:32:45;15.80;99.90
9658;DHT22;4867;48.112;11.622;2023-06-10T01:35:15;15.80;99.90
9658;DHT22;4867;48.112;11.622;2023-06-10T01:38:03;15.60;99.90
9658;DHT22;4867;48.112;11.622;2023-06-10T01:40:32;15.50;99.90
9658;DHT22;4867;48.112;11.622;2023-06-10T01:43:01;15.60;99.90
9658;DHT22;4867;48.112;11.622;2023-06-10T01:45:29;15.50;99.90
9658;DHT22;4867;48.112;11.622;2023-06-10T01:47:56;15.50;99.90
9658;DHT22;4867;48.112;11.622;2023-06-10T01:50:23;15.40;99.90
9658;DHT22;4867;48.112;11.622;2023-06-10T01:52:51;15.40;99.90
9658;DHT22;4867;48.112;11.622;2023-06-10T01:55:18;15.30;99.90
9658;DHT22;4867;48.112;11.622;2023-06-10T01:57:46;15.30;99.90
9658;DHT22;4867;48.112;11.622;2023-06-10T02:00:14;15.30;99.90
9658;DHT22;4867;48.112;11.622;2023-06-10T02:02:41;15.30;99.90
9658;DHT22;4867;48.112;11.622;2023-06-10T02:05:09;15.30;99.90
9658;DHT22;4867;48.112;11.622;2023-06-10T02:07:36;15.30;99.90
9658;DHT22;4867;48.112;11.622;2023-06-10T02:10:06;15.20;99.90
9658;DHT22;4867;48.112;11.622;2023-06-10T02:12:34;15.20;99.90
9658;DHT22;4867;48.112;11.622;2023-06-10T02:15:01;15.20;99.90
9658;DHT22;4867;48.112;11.622;2023-06-10T02:17:29;15.20;99.90
9658;DHT22;4867;48.112;11.622;2023-06-10T02:19:58;15.10;99.90
9658;DHT22;4867;48.112;11.622;2023-06-10T02:22:26;15.00;99.90
9658;DHT22;4867;48.112;11.622;2023-06-10T02:24:54;15.00;99.90
9658;DHT22;4867;48.112;11.622;2023-06-10T02:27:22;15.00;99.90
9658;DHT22;4867;48.112;11.622;2023-06-10T02:29:49;15.00;99.90
9658;DHT22;4867;48.112;11.622;2023-06-10T02:32:17;14.90;99.90
9658;DHT22;4867;48.112;11.622;2023-06-10T02:34:44;14.90;99.90
9658;DHT22;4867;48.112;11.622;2023-06-10T02:37:13;14.90;99.90
9658;DHT22;4867;48.112;11.622;2023-06-10T02:39:41;14.90;99.90
9658;DHT22;4867;48.112;11.622;2023-06-10T02:42:11;14.90;99.90
9658;DHT22;4867;48.112;11.622;2023-06-10T02:44:39;14.80;99.90
9658;DHT22;4867;48.112;11.622;2023-06-10T02:47:11;14.90;99.90
9658;DHT22;4867;48.112;11.622;2023-06-10T02:49:38;14.80;99.90
9658;DHT22;4867;48.112;11.622;2023-06-10T02:52:09;14.80;99.90
9658;DHT22;4867;48.112;11.622;2023-06-10T02:54:38;14.70;99.90
9658;DHT22;4867;48.112;11.622;2023-06-10T02:57:08;14.70;99.90
9658;DHT22;4867;48.112;11.622;2023-06-10T02:59:38;14.60;99.90
9658;DHT22;4867;48.112;11.622;2023-06-10T03:02:05;14.60;99.90
9658;DHT22;4867;48.112;11.622;2023-06-10T03:04:39;14.60;99.90
9658;DHT22;4867;48.112;11.622;2023-06-10T03:07:13;14.60;99.90
9658;DHT22;4867;48.112;11.622;2023-06-10T03:09:41;14.60;99.90
9658;DHT22;4867;48.112;11.622;2023-06-10T03:12:13;14.60;99.90
9658;DHT22;4867;48.112;11.622;2023-06-10T03:14:44;14.60;99.90
9658;DHT22;4867;48.112;11.622;2023-06-10T03:17:12;14.60;99.90
9658;DHT22;4867;48.112;11.622;2023-06-10T03:19:42;14.50;99.90
9658;DHT22;4867;48.112;11.622;2023-06-10T03:22:14;14.60;99.90
9658;DHT22;4867;48.112;11.622;2023-06-10T03:24:49;14.60;99.90
9658;DHT22;4867;48.112;11.622;2023-06-10T03:27:18;14.60;99.90
9658;DHT22;4867;48.112;11.622;2023-06-10T03:29:50;14.60;99.90
9658;DHT22;4867;48.112;11.622;2023-06-10T03:32:18;14.60;99.90
9658;DHT22;4867;48.112;11.622;2023-06-10T03:34:46;14.60;99.90
9658;DHT22;4867;48.112;11.622;2023-06-10T03:37:14;14.60;99.90
9658;DHT22;4867;48.112;11.622;2023-06-10T03:39:44;14.60;99.90
9658;DHT22;4867;48.112;11.622;2023-06-10T03:42:11;14.50;99.90
9658;DHT22;4867;48.112;11.622;2023-06-10T03:44:39;14.50;99.90
9658;DHT22;4867;48.112;11.622;2023-06-10T03:47:07;14.50;99.90
9658;DHT22;4867;48.112;11.622;2023-06-10T03:49:35;14.50;99.90
9658;DHT22;4867;48.112;11.622;2023-06-10T03:52:04;14.70;99.90
9658;DHT22;4867;48.112;11.622;2023-06-10T03:54:32;15.20;99.90
9658;DHT22;4867;48.112;11.622;2023-06-10T03:57:03;15.70;99.90
9658;DHT22;4867;48.112;11.622;2023-06-10T03:59:30;16.20;99.90
9658;DHT22;4867;48.112;11.622;2023-06-10T04:01:58;16.60;99.90
9658;DHT22;4867;48.112;11.622;2023-06-10T04:04:25;17.00;99.90
9658;DHT22;4867;48.112;11.622;2023-06-10T04:06:53;17.40;99.90
9658;DHT22;4867;48.112;11.622;2023-06-10T04:09:22;17.70;99.90
9658;DHT22;4867;48.112;11.622;2023-06-10T04:11:49;18.00;99.90
9658;DHT22;4867;48.112;11.622;2023-06-10T04:14:17;18.20;99.90
9658;DHT22;4867;48.112;11.622;2023-06-10T04:16:45;18.20;99.90
9658;DHT22;4867;48.112;11.622;2023-06-10T04:19:12;18.30;99.90
9658;DHT22;4867;48.112;11.622;2023-06-10T04:21:40;18.30;99.90
9658;DHT22;4867;48.112;11.622;2023-06-10T04:24:07;18.40;99.90
9658;DHT22;4867;48.112;11.622;2023-06-10T04:26:35;18.30;99.90
9658;DHT22;4867;48.112;11.622;2023-06-10T04:29:04;18.30;99.90
9658;DHT22;4867;48.112;11.622;2023-06-10T04:31:32;18.30;99.90
9658;DHT22;4867;48.112;11.622;2023-06-10T04:34:00;18.30;99.90
9658;DHT22;4867;48.112;11.622;2023-06-10T04:36:28;18.20;99.90
9658;DHT22;4867;48.112;11.622;2023-06-10T04:38:57;18.20;99.90
9658;DHT22;4867;48.112;11.622;2023-06-10T04:41:24;18.00;99.90
9658;DHT22;4867;48.112;11.622;2023-06-10T04:43:53;18.20;99.90
9658;DHT22;4867;48.112;11.622;2023-06-10T04:46:20;18.00;99.90
9658;DHT22;4867;48.112;11.622;2023-06-10T04:48:48;18.20;99.90
9658;DHT22;4867;48.112;11.622;2023-06-10T04:51:16;18.40;99.90
9658;DHT22;4867;48.112;11.622;2023-06-10T04:53:44;18.30;99.90
9658;DHT22;4867;48.112;11.622;2023-06-10T04:56:12;18.50;99.90
9658;DHT22;4867;48.112;11.622;2023-06-10T04:58:39;18.80;99.90
9658;DHT22;4867;48.112;11.622;2023-06-10T05:01:06;19.10;99.90
9658;DHT22;4867;48.112;11.622;2023-06-10T05:03:34;19.50;99.90
9658;DHT22;4867;48.112;11.622;2023-06-10T05:06:01;19.80;99.90
9658;DHT22;4867;48.112;11.622;2023-06-10T05:08:29;20.40;99.90
9658;DHT22;4867;48.112;11.622;2023-06-10T05:10:56;20.70;99.90
9658;DHT22;4867;48.112;11.622;2023-06-10T05:13:23;21.00;99.90
9658;DHT22;4867;48.112;11.622;2023-06-10T05:15:51;21.20;99.90
9658;DHT22;4867;48.112;11.622;2023-06-10T05:18:18;21.30;99.90
9658;DHT22;4867;48.112;11.622;2023-06-10T05:20:45;21.30;99.90
9658;DHT22;4867;48.112;11.622;2023-06-10T05:23:14;21.30;99.90
9658;DHT22;4867;48.112;11.622;2023-06-10T05:25:41;21.00;99.90
9658;DHT22;4867;48.112;11.622;2023-06-10T05:28:09;20.90;99.90
9658;DHT22;4867;48.112;11.622;2023-06-10T05:30:41;20.70;99.90
9658;DHT22;4867;48.112;11.622;2023-06-10T05:33:08;20.60;99.90
9658;DHT22;4867;48.112;11.622;2023-06-10T05:35:36;20.40;99.90
9658;DHT22;4867;48.112;11.622;2023-06-10T05:38:03;20.20;99.90
9658;DHT22;4867;48.112;11.622;2023-06-10T05:40:31;20.00;99.90
9658;DHT22;4867;48.112;11.622;2023-06-10T05:42:58;19.80;99.90
9658;DHT22;4867;48.112;11.622;2023-06-10T05:45:25;19.60;99.90
9658;DHT22;4867;48.112;11.622;2023-06-10T05:47:52;19.70;99.90
9658;DHT22;4867;48.112;11.622;2023-06-10T05:50:20;19.70;99.90
9658;DHT22;4867;48.112;11.622;2023-06-10T05:52:47;19.70;99.90
9658;DHT22;4867;48.112;11.622;2023-06-10T05:55:14;19.60;99.90
9658;DHT22;4867;48.112;11.622;2023-06-10T05:57:42;19.60;99.90
9658;DHT22;4867;48.112;11.622;2023-06-10T06:00:10;19.70;99.90
9658;DHT22;4867;48.112;11.622;2023-06-10T06:02:41;19.70;99.90
9658;DHT22;4867;48.112;11.622;2023-06-10T06:05:08;19.80;99.90
9658;DHT22;4867;48.112;11.622;2023-06-10T06:07:37;19.90;99.90
9658;DHT22;4867;48.112;11.622;2023-06-10T06:10:04;19.90;99.90
9658;DHT22;4867;48.112;11.622;2023-06-10T06:12:32;20.00;99.90
9658;DHT22;4867;48.112;11.622;2023-06-10T06:14:59;20.10;99.90
9658;DHT22;4867;48.112;11.622;2023-06-10T06:17:26;20.30;99.90
9658;DHT22;4867;48.112;11.622;2023-06-10T06:19:54;20.20;99.90
9658;DHT22;4867;48.112;11.622;2023-06-10T06:22:21;20.20;99.90
9658;DHT22;4867;48.112;11.622;2023-06-10T06:24:49;20.20;99.90
9658;DHT22;4867;48.112;11.622;2023-06-10T06:27:16;20.40;99.90
9658;DHT22;4867;48.112;11.622;2023-06-10T06:29:44;20.50;99.90
9658;DHT22;4867;48.112;11.622;2023-06-10T06:32:12;20.40;99.90
9658;DHT22;4867;48.112;11.622;2023-06-10T06:34:39;20.40;99.90
9658;DHT22;4867;48.112;11.622;2023-06-10T06:37:06;20.40;99.90
9658;DHT22;4867;48.112;11.622;2023-06-10T06:39:37;20.40;99.90
9658;DHT22;4867;48.112;11.622;2023-06-10T06:42:04;20.40;99.90
9658;DHT22;4867;48.112;11.622;2023-06-10T06:44:49;20.20;99.90
9658;DHT22;4867;48.112;11.622;2023-06-10T06:47:16;20.00;99.90
9658;DHT22;4867;48.112;11.622;2023-06-10T06:49:47;19.80;99.90
9658;DHT22;4867;48.112;11.622;2023-06-10T06:52:15;19.80;99.90
9658;DHT22;4867;48.112;11.622;2023-06-10T06:54:42;19.70;99.90
9658;DHT22;4867;48.112;11.622;2023-06-10T06:57:10;19.60;99.90
9658;DHT22;4867;48.112;11.622;2023-06-10T06:59:37;19.70;99.90
9658;DHT22;4867;48.112;11.622;2023-06-10T07:02:05;19.70;99.90
9658;DHT22;4867;48.112;11.622;2023-06-10T07:04:33;19.80;99.90
9658;DHT22;4867;48.112;11.622;2023-06-10T07:07:00;20.00;99.90
9658;DHT22;4867;48.112;11.622;2023-06-10T07:09:27;20.20;99.90
9658;DHT22;4867;48.112;11.622;2023-06-10T07:11:55;20.40;99.90
9658;DHT22;4867;48.112;11.622;2023-06-10T07:14:22;20.60;99.90
9658;DHT22;4867;48.112;11.622;2023-06-10T07:16:50;20.80;99.90
9658;DHT22;4867;48.112;11.622;2023-06-10T07:19:17;21.00;99.90
9658;DHT22;4867;48.112;11.622;2023-06-10T07:21:44;21.20;99.90
9658;DHT22;4867;48.112;11.622;2023-06-10T07:24:12;21.20;99.90
9658;DHT22;4867;48.112;11.622;2023-06-10T07:26:39;21.50;99.90
9658;DHT22;4867;48.112;11.622;2023-06-10T07:29:07;21.50;99.90
9658;DHT22;4867;48.112;11.622;2023-06-10T07:31:34;21.50;99.90
9658;DHT22;4867;48.112;11.622;2023-06-10T07:34:02;21.60;99.90
9658;DHT22;4867;48.112;11.622;2023-06-10T07:36:29;21.60;99.90
9658;DHT22;4867;48.112;11.622;2023-06-10T07:38:56;21.60;99.90
9658;DHT22;4867;48.112;11.622;2023-06-10T07:41:24;21.70;99.90
9658;DHT22;4867;48.112;11.622;2023-06-10T07:43:54;21.80;99.90
9658;DHT22;4867;48.112;11.622;2023-06-10T07:46:23;21.90;99.90
9658;DHT22;4867;48.112;11.622;2023-06-10T07:48:51;21.90;99.90
9658;DHT22;4867;48.112;11.622;2023-06-10T07:51:19;21.80;99.90
9658;DHT22;4867;48.112;11.622;2023-06-10T07:53:46;21.90;99.90
9658;DHT22;4867;48.112;11.622;2023-06-10T07:56:14;22.00;99.90
9658;DHT22;4867;48.112;11.622;2023-06-10T07:58:41;22.20;99.90
9658;DHT22;4867;48.112;11.622;2023-06-10T08:01:08;22.20;99.90
9658;DHT22;4867;48.112;11.622;2023-06-10T08:03:36;22.20;99.90
9658;DHT22;4867;48.112;11.622;2023-06-10T08:06:04;22.20;99.90
9658;DHT22;4867;48.112;11.622;2023-06-10T08:08:32;22.30;99.90
9658;DHT22;4867;48.112;11.622;2023-06-10T08:11:01;22.30;99.90
9658;DHT22;4867;48.112;11.622;2023-06-10T08:13:28;22.50;99.90
9658;DHT22;4867;48.112;11.622;2023-06-10T08:15:56;22.70;99.90
9658;DHT22;4867;48.112;11.622;2023-06-10T08:18:23;22.80;99.90
9658;DHT22;4867;48.112;11.622;2023-06-10T08:20:51;22.90;99.90
9658;DHT22;4867;48.112;11.622;2023-06-10T08:23:18;22.90;99.90
9658;DHT22;4867;48.112;11.622;2023-06-10T08:25:47;23.00;99.90
9658;DHT22;4867;48.112;11.622;2023-06-10T08:28:14;22.80;99.90
9658;DHT22;4867;48.112;11.622;2023-06-10T08:30:42;22.80;99.90
9658;DHT22;4867;48.112;11.622;2023-06-10T08:33:09;22.80;99.90
9658;DHT22;4867;48.112;11.622;2023-06-10T08:35:36;22.90;99.90
9658;DHT22;4867;48.112;11.622;2023-06-10T08:38:03;23.00;99.90
9658;DHT22;4867;48.112;11.622;2023-06-10T08:40:32;23.00;99.90
9658;DHT22;4867;48.112;11.622;2023-06-10T08:43:07;22.80;99.90
9658;DHT22;4867;48.112;11.622;2023-06-10T08:45:36;23.00;99.90
9658;DHT22;4867;48.112;11.622;2023-06-10T08:48:04;23.30;99.90
9658;DHT22;4867;48.112;11.622;2023-06-10T08:50:38;23.60;99.90
9658;DHT22;4867;48.112;11.622;2023-06-10T08:53:06;23.80;99.90
9658;DHT22;4867;48.112;11.622;2023-06-10T08:55:40;23.80;99.90
9658;DHT22;4867;48.112;11.622;2023-06-10T08:58:09;23.60;99.90
9658;DHT22;4867;48.112;11.622;2023-06-10T09:00:37;23.30;99.90
9658;DHT22;4867;48.112;11.622;2023-06-10T09:03:05;23.50;99.90
9658;DHT22;4867;48.112;11.622;2023-06-10T09:05:35;23.60;99.90
9658;DHT22;4867;48.112;11.622;2023-06-10T09:08:08;23.70;99.90
9658;DHT22;4867;48.112;11.622;2023-06-10T09:10:36;23.80;99.90
9658;DHT22;4867;48.112;11.622;2023-06-10T09:13:03;23.80;99.90
9658;DHT22;4867;48.112;11.622;2023-06-10T09:15:31;23.80;99.90
9658;DHT22;4867;48.112;11.622;2023-06-10T09:17:59;23.90;99.90
9658;DHT22;4867;48.112;11.622;2023-06-10T09:20:27;23.90;99.90
9658;DHT22;4867;48.112;11.622;2023-06-10T09:22:54;23.60;99.90
9658;DHT22;4867;48.112;11.622;2023-06-10T09:25:34;23.60;99.90
9658;DHT22;4867;48.112;11.622;2023-06-10T09:28:03;23.40;99.90
9658;DHT22;4867;48.112;11.622;2023-06-10T09:30:34;23.50;99.90
9658;DHT22;4867;48.112;11.622;2023-06-10T09:33:14;23.70;99.90
9658;DHT22;4867;48.112;11.622;2023-06-10T09:35:49;23.80;99.90
9658;DHT22;4867;48.112;11.622;2023-06-10T09:38:21;23.80;99.90
9658;DHT22;4867;48.112;11.622;2023-06-10T09:40:53;23.90;99.90
9658;DHT22;4867;48.112;11.622;2023-06-10T09:43:21;23.90;99.90
9658;DHT22;4867;48.112;11.622;2023-06-10T09:45:51;23.80;99.90
9658;DHT22;4867;48.112;11.622;2023-06-10T09:48:22;23.90;99.90
9658;DHT22;4867;48.112;11.622;2023-06-10T09:50:50;23.90;99.90
9658;DHT22;4867;48.112;11.622;2023-06-10T09:53:18;23.90;99.90
9658;DHT22;4867;48.112;11.622;2023-06-10T09:55:46;23.90;99.90
9658;DHT22;4867;48.112;11.622;2023-06-10T09:58:14;24.10;99.90
9658;DHT22;4867;48.112;11.622;2023-06-10T10:00:41;24.40;99.90
9658;DHT22;4867;48.112;11.622;2023-06-10T10:03:09;24.40;99.90
9658;DHT22;4867;48.112;11.622;2023-06-10T10:05:36;24.50;99.90
9658;DHT22;4867;48.112;11.622;2023-06-10T10:08:04;24.40;99.90
9658;DHT22;4867;48.112;11.622;2023-06-10T10:10:31;24.20;99.90
9658;DHT22;4867;48.112;11.622;2023-06-10T10:12:58;24.00;99.90
9658;DHT22;4867;48.112;11.622;2023-06-10T10:15:29;24.10;99.90
9658;DHT22;4867;48.112;11.622;2023-06-10T10:18:07;23.90;99.90
9658;DHT22;4867;48.112;11.622;2023-06-10T10:20:46;24.00;99.90
9658;DHT22;4867;48.112;11.622;2023-06-10T10:23:20;24.10;99.90
9658;DHT22;4867;48.112;11.622;2023-06-10T10:25:52;24.10;99.90
9658;DHT22;4867;48.112;11.622;2023-06-10T10:28:22;24.50;99.90
9658;DHT22;4867;48.112;11.622;2023-06-10T10:30:54;24.70;99.90
9658;DHT22;4867;48.112;11.622;2023-06-10T10:36:14;24.50;99.90
9658;DHT22;4867;48.112;11.622;2023-06-10T10:38:42;24.70;99.90
9658;DHT22;4867;48.112;11.622;2023-06-10T10:41:10;24.70;99.90
9658;DHT22;4867;48.112;11.622;2023-06-10T10:43:38;24.50;99.90
9658;DHT22;4867;48.112;11.622;2023-06-10T10:46:13;24.40;99.90
9658;DHT22;4867;48.112;11.622;2023-06-10T10:48:41;24.20;99.90
9658;DHT22;4867;48.112;11.622;2023-06-10T10:51:09;24.20;99.90
9658;DHT22;4867;48.112;11.622;2023-06-10T10:53:40;24.20;99.90
9658;DHT22;4867;48.112;11.622;2023-06-10T10:56:12;24.30;99.90
9658;DHT22;4867;48.112;11.622;2023-06-10T10:58:40;24.60;99.90
9658;DHT22;4867;48.112;11.622;2023-06-10T11:01:14;24.70;99.90
9658;DHT22;4867;48.112;11.622;2023-06-10T11:03:43;24.70;99.90
9658;DHT22;4867;48.112;11.622;2023-06-10T11:06:17;24.70;99.90
9658;DHT22;4867;48.112;11.622;2023-06-10T11:08:45;24.70;99.90
9658;DHT22;4867;48.112;11.622;2023-06-10T11:11:23;24.70;99.90
9658;DHT22;4867;48.112;11.622;2023-06-10T11:16:42;24.80;99.90
9658;DHT22;4867;48.112;11.622;2023-06-10T11:19:10;24.60;99.90
9658;DHT22;4867;48.112;11.622;2023-06-10T11:22:00;24.30;99.90
9658;DHT22;4867;48.112;11.622;2023-06-10T11:24:29;24.20;99.90
9658;DHT22;4867;48.112;11.622;2023-06-10T11:27:18;24.10;99.90
9658;DHT22;4867;48.112;11.622;2023-06-10T11:30:17;24.10;99.90
9658;DHT22;4867;48.112;11.622;2023-06-10T11:32:50;24.50;99.90
9658;DHT22;4867;48.112;11.622;2023-06-10T11:35:19;24.80;99.90
9658;DHT22;4867;48.112;11.622;2023-06-10T11:37:48;25.10;99.90
9658;DHT22;4867;48.112;11.622;2023-06-10T11:40:16;25.40;99.90
9658;DHT22;4867;48.112;11.622;2023-06-10T11:42:44;25.70;99.90
9658;DHT22;4867;48.112;11.622;2023-06-10T11:45:15;25.90;99.90
9658;DHT22;4867;48.112;11.622;2023-06-10T11:47:56;26.00;99.90
9658;DHT22;4867;48.112;11.622;2023-06-10T11:50:33;26.10;99.90
9658;DHT22;4867;48.112;11.622;2023-06-10T11:53:01;25.80;99.90
9658;DHT22;4867;48.112;11.622;2023-06-10T11:55:48;25.80;99.90
9658;DHT22;4867;48.112;11.622;2023-06-10T11:58:17;25.90;99.90
9658;DHT22;4867;48.112;11.622;2023-06-10T12:03:14;26.00;99.90
9658;DHT22;4867;48.112;11.622;2023-06-10T12:06:05;26.00;99.90
9658;DHT22;4867;48.112;11.622;2023-06-10T12:08:33;26.00;99.90
9658;DHT22;4867;48.112;11.622;2023-06-10T12:11:03;26.10;99.90
9658;DHT22;4867;48.112;11.622;2023-06-10T12:13:30;26.20;99.90
9658;DHT22;4867;48.112;11.622;2023-06-10T12:16:07;26.20;99.90
9658;DHT22;4867;48.112;11.622;2023-06-10T12:18:35;26.40;99.00
9658;DHT22;4867;48.112;11.622;2023-06-10T12:21:03;26.50;98.90
9658;DHT22;4867;48.112;11.622;2023-06-10T12:23:30;26.60;98.80
9658;DHT22;4867;48.112;11.622;2023-06-10T12:25:59;26.40;97.70
9658;DHT22;4867;48.112;11.622;2023-06-10T12:28:27;26.50;98.20
9658;DHT22;4867;48.112;11.622;2023-06-10T12:31:07;26.50;98.00
9658;DHT22;4867;48.112;11.622;2023-06-10T12:33:35;26.60;97.20
9658;DHT22;4867;48.112;11.622;2023-06-10T12:36:02;26.70;97.10
9658;DHT22;4867;48.112;11.622;2023-06-10T12:38:29;26.80;97.30
9658;DHT22;4867;48.112;11.622;2023-06-10T12:41:02;26.90;96.60
9658;DHT22;4867;48.112;11.622;2023-06-10T12:43:32;26.80;96.10
9658;DHT22;4867;48.112;11.622;2023-06-10T12:46:09;26.90;96.20
9658;DHT22;4867;48.112;11.622;2023-06-10T12:48:49;26.80;96.70
9658;DHT22;4867;48.112;11.622;2023-06-10T12:51:18;26.70;95.70
9658;DHT22;4867;48.112;11.622;2023-06-10T12:53:46;26.80;96.60
9658;DHT22;4867;48.112;11.622;2023-06-10T12:56:13;27.00;97.50
9658;DHT22;4867;48.112;11.622;2023-06-10T12:58:41;27.00;98.80
9658;DHT22;4867;48.112;11.622;2023-06-10T13:01:10;27.00;99.30
9658;DHT22;4867;48.112;11.622;2023-06-10T13:03:39;27.00;99.60
9658;DHT22;4867;48.112;11.622;2023-06-10T13:06:07;26.70;99.90
9658;DHT22;4867;48.112;11.622;2023-06-10T13:08:34;26.40;99.90
9658;DHT22;4867;48.112;11.622;2023-06-10T13:11:02;26.20;99.90
9658;DHT22;4867;48.112;11.622;2023-06-10T13:13:29;26.00;99.90
9658;DHT22;4867;48.112;11.622;2023-06-10T13:15:56;25.90;99.90
9658;DHT22;4867;48.112;11.622;2023-06-10T13:18:24;26.20;99.90
9658;DHT22;4867;48.112;11.622;2023-06-10T13:20:51;26.40;99.90
9658;DHT22;4867;48.112;11.622;2023-06-10T13:23:18;26.40;99.90
9658;DHT22;4867;48.112;11.622;2023-06-10T13:25:45;26.30;99.90
9658;DHT22;4867;48.112;11.622;2023-06-10T13:28:12;26.20;99.90
9658;DHT22;4867;48.112;11.622;2023-06-10T13:30:40;26.30;99.90
9658;DHT22;4867;48.112;11.622;2023-06-10T13:33:07;26.10;99.90
9658;DHT22;4867;48.112;11.622;2023-06-10T13:35:35;26.10;99.90
9658;DHT22;4867;48.112;11.622;2023-06-10T13:38:02;26.20;99.90
9658;DHT22;4867;48.112;11.622;2023-06-10T13:40:29;26.20;99.90
9658;DHT22;4867;48.112;11.622;2023-06-10T13:42:56;26.20;99.90
9658;DHT22;4867;48.112;11.622;2023-06-10T13:45:24;26.20;99.90
9658;DHT22;4867;48.112;11.622;2023-06-10T13:47:51;26.30;99.90
9658;DHT22;4867;48.112;11.622;2023-06-10T13:50:19;26.20;99.90
9658;DHT22;4867;48.112;11.622;2023-06-10T13:52:47;26.10;99.00
9658;DHT22;4867;48.112;11.622;2023-06-10T13:55:14;26.00;99.00
9658;DHT22;4867;48.112;11.622;2023-06-10T13:57:42;26.00;99.20
9658;DHT22;4867;48.112;11.622;2023-06-10T14:00:10;26.10;99.50
9658;DHT22;4867;48.112;11.622;2023-06-10T14:02:37;26.10;99.20
9658;DHT22;4867;48.112;11.622;2023-06-10T14:05:06;26.10;98.70
9658;DHT22;4867;48.112;11.622;2023-06-10T14:07:35;26.10;99.00
9658;DHT22;4867;48.112;11.622;2023-06-10T14:10:04;26.20;99.30
9658;DHT22;4867;48.112;11.622;2023-06-10T14:12:31;26.30;99.10
9658;DHT22;4867;48.112;11.622;2023-06-10T14:14:59;26.20;98.90
9658;DHT22;4867;48.112;11.622;2023-06-10T14:17:26;26.40;98.50
9658;DHT22;4867;48.112;11.622;2023-06-10T14:19:54;26.40;98.50
9658;DHT22;4867;48.112;11.622;2023-06-10T14:22:21;26.50;98.80
9658;DHT22;4867;48.112;11.622;2023-06-10T14:24:48;26.40;97.70
9658;DHT22;4867;48.112;11.622;2023-06-10T14:27:15;26.30;98.40
9658;DHT22;4867;48.112;11.622;2023-06-10T14:29:43;26.20;99.10
9658;DHT22;4867;48.112;11.622;2023-06-10T14:32:10;26.20;99.20
9658;DHT22;4867;48.112;11.622;2023-06-10T14:34:37;26.20;99.10
9658;DHT22;4867;48.112;11.622;2023-06-10T14:37:06;26.20;98.80
9658;DHT22;4867;48.112;11.622;2023-06-10T14:39:34;26.20;98.70
9658;DHT22;4867;48.112;11.622;2023-06-10T14:42:02;26.30;98.10
9658;DHT22;4867;48.112;11.622;2023-06-10T14:44:30;26.40;97.10
9658;DHT22;4867;48.112;11.622;2023-06-10T14:46:57;26.50;96.50
9658;DHT22;4867;48.112;11.622;2023-06-10T14:49:24;26.60;95.80
9658;DHT22;4867;48.112;11.622;2023-06-10T14:51:51;26.60;95.60
9658;DHT22;4867;48.112;11.622;2023-06-10T14:54:19;26.80;95.90
9658;DHT22;4867;48.112;11.622;2023-06-10T14:56:46;26.90;96.00
9658;DHT22;4867;48.112;11.622;2023-06-10T14:59:13;26.90;96.10
9658;DHT22;4867;48.112;11.622;2023-06-10T15:01:40;26.70;96.10
9658;DHT22;4867;48.112;11.622;2023-06-10T15:04:08;26.60;96.90
9658;DHT22;4867;48.112;11.622;2023-06-10T15:06:35;26.50;97.30
9658;DHT22;4867;48.112;11.622;2023-06-10T15:09:03;26.70;97.90
9658;DHT22;4867;48.112;11.622;2023-06-10T15:11:30;26.80;98.70
9658;DHT22;4867;48.112;11.622;2023-06-10T15:13:57;26.90;99.10
9658;DHT22;4867;48.112;11.622;2023-06-10T15:16:25;27.00;98.90
9658;DHT22;4867;48.112;11.622;2023-06-10T15:18:52;26.90;99.10
9658;DHT22;4867;48.112;11.622;2023-06-10T15:21:19;27.00;99.00
9658;DHT22;4867;48.112;11.622;2023-06-10T15:23:46;27.10;98.70
9658;DHT22;4867;48.112;11.622;2023-06-10T15:26:14;27.10;98.40
9658;DHT22;4867;48.112;11.622;2023-06-10T15:28:42;27.20;97.90
9658;DHT22;4867;48.112;11.622;2023-06-10T15:31:09;27.40;97.30
9658;DHT22;4867;48.112;11.622;2023-06-10T15:33:36;27.50;97.10
9658;DHT22;4867;48.112;11.622;2023-06-10T15:36:04;27.60;96.40
9658;DHT22;4867;48.112;11.622;2023-06-10T15:38:33;27.40;95.90
9658;DHT22;4867;48.112;11.622;2023-06-10T15:41:00;27.30;95.70
9658;DHT22;4867;48.112;11.622;2023-06-10T15:43:27;27.50;96.00
9658;DHT22;4867;48.112;11.622;2023-06-10T15:45:54;27.50;96.10
9658;DHT22;4867;48.112;11.622;2023-06-10T15:48:22;27.50;96.20
9658;DHT22;4867;48.112;11.622;2023-06-10T15:50:49;27.30;96.00
9658;DHT22;4867;48.112;11.622;2023-06-10T15:53:17;27.30;96.20
9658;DHT22;4867;48.112;11.622;2023-06-10T15:55:44;27.50;96.50
9658;DHT22;4867;48.112;11.622;2023-06-10T15:58:12;27.90;96.50
9658;DHT22;4867;48.112;11.622;2023-06-10T16:00:39;28.20;96.40
9658;DHT22;4867;48.112;11.622;2023-06-10T16:03:06;28.40;95.90
9658;DHT22;4867;48.112;11.622;2023-06-10T16:05:33;28.30;96.30
9658;DHT22;4867;48.112;11.622;2023-06-10T16:08:01;28.10;96.50